Terminal Aerodrome Forecast
Issued by NWS

Home | Current Version | Previous Version | Text Only | Print | Product List | Glossary On
Versions: 1 2 3 4 5 6 7 8 9 10 11 12 13 14 15 16 17 18 19 20 21 22 23 24 25
000
FTUS45 KREV 261723
TAFTRK
TAF
KTRK 261723Z 2618/2718 22010G16KT P6SM VCSH BKN028 OVC035
      WS020/25050KT
     FM262000 26014G24KT P6SM SCT025 OVC040 WS020/26050KT
     FM270100 25009G16KT P6SM SCT025 BKN040
     FM270400 VRB04KT P6SM SCT040 BKN080
     FM271600 21008KT P6SM FEW040 BKN080=

USA.gov is the U.S. government's official web portal to all federal, state and local government web resources and services.